Accueil
METAR-TAF:

METAR-TAF

Aéroports :

Vamdrup

Kolding, Danemark

latitude: 55-26N, longitude: 009-20E, altitude: 44 m

Observation

Le bulletin a été fait il y a 23 minutes, à 14:50 UTC
Vent 17 kt de ouest/sud-ouest avec des rafales jusqu'à 27 kt
Température 18°C
Humidité 83%
Pression 1014 hPa
Visibilité 10 km ou plus
Nuages fragmentés à une hauteur de 1400 ft

METAR: EKVD 201450Z 25017G27KT 9999 BKN014 18/15 Q1014

Heure: 17:13 (15:13 UTC)

Prévision

Le bulletin a été fait il y a 3 heures et 16 minutes, à 11:57 UTC
Prévision valable du 20 à 12 UTC au 20 à 16 UTC
Vent 18 kt de ouest/sud-ouest
Visibilité 10 km ou plus
Nuages fragmentés à une hauteur de 1000 ft
Temporairement
du 20 à 12 UTC au 20 à 16 UTC
Vent 20 kt de ouest/sud-ouest avec des rafales jusqu'à 35 kt
Nuages épars à une hauteur de 1000 ft

TAF: EKVD 201157Z 2012/2016 24018KT 9999 BKN010 TEMPO 2012/2016 24020G35KT SCT010

Observations et prévisions météorologiques de plus de 4000 aéroports (messages METAR et TAF).

Les stations disponibles sont représentées par des disques jaunes et rouges sur la carte.

Passer la souris dessus pour voir le nom de la station.

Cliquer dessus pour voir les observations et prévisions météorologiques.

Pour changer de carte: cliquez sur les boutons verts avec une croix noire pour zoomer, sur le bouton vert avec un tiret pour effectuer un zoom arrière, ou sur les flèches vertes pour les cartes adjacentes.


METAR-TAF: